Time;durP1;ratioP1;P1;durP2;ratioP2;P2;SDS_P1;SDS_P2;PMS_P1;PMS_P2;Temp;Humidity;BMP_temperature;BMP_pressure;BME280_temperature;BME280_humidity;BME280_pressure;Samples;Min_cycle;Max_cycle;Signal;HPM_P1;HPM_P2
2022/11/27 00:01:13;;;;;;;15.98;7.30;;;;;;;9.67;60.99;102459.09;4920361;29;20041;-67
2022/11/27 00:03:40;;;;;;;15.30;6.35;;;;;;;9.65;61.03;102454.72;4920034;29;20044;-68
2022/11/27 00:06:10;;;;;;;17.58;6.70;;;;;;;9.59;61.02;102458.53;4919081;29;20135;-66
2022/11/27 00:08:36;;;;;;;16.15;6.55;;;;;;;9.54;61.13;102450.66;4920611;29;20052;-67
2022/11/27 00:11:18;;;;;;;14.55;7.15;;;;;;;9.55;60.82;102451.53;4903251;29;20044;-67
2022/11/27 00:13:45;;;;;;;21.83;7.95;;;;;;;9.56;61.14;102445.25;4903100;29;20134;-67
2022/11/27 00:16:13;;;;;;;13.95;7.07;;;;;;;9.53;60.92;102440.88;4919586;29;20503;-66
2022/11/27 00:18:40;;;;;;;17.13;8.02;;;;;;;9.51;61.08;102436.50;4919954;29;20044;-66
2022/11/27 00:21:12;;;;;;;14.63;7.93;;;;;;;9.51;61.02;102436.50;4919998;29;20104;-66
2022/11/27 00:23:39;;;;;;;18.42;9.07;;;;;;;9.49;61.03;102428.53;4887349;29;20463;-67
2022/11/27 00:26:06;;;;;;;17.38;8.82;;;;;;;9.49;60.95;102425.84;4919940;29;20122;-66
2022/11/27 00:28:34;;;;;;;17.25;9.38;;;;;;;9.48;61.20;102421.41;4919919;29;20048;-66
2022/11/27 00:31:12;;;;;;;17.55;9.95;;;;;;;9.47;61.07;102419.69;4920023;29;20044;-66
2022/11/27 00:33:39;;;;;;;20.17;9.75;;;;;;;9.46;61.30;102415.25;4919688;29;20487;-65
2022/11/27 00:36:07;;;;;;;19.85;10.27;;;;;;;9.47;61.32;102413.44;4919535;29;20499;-67
2022/11/27 00:38:34;;;;;;;19.42;10.30;;;;;;;9.45;60.89;102418.88;4919874;29;20048;-67
2022/11/27 00:41:13;;;;;;;17.58;10.15;;;;;;;9.44;61.16;102413.56;4919421;29;20056;-67
2022/11/27 00:43:40;;;;;;;22.42;10.90;;;;;;;9.41;61.05;102406.53;4902698;29;20063;-66
2022/11/27 00:46:14;;;;;;;15.15;10.27;;;;;;;9.39;61.12;102405.72;4919536;29;20137;-66
2022/11/27 00:48:42;;;;;;;15.80;10.23;;;;;;;9.37;61.05;102398.66;4919262;29;20048;-66
2022/11/27 00:51:11;;;;;;;16.00;9.88;;;;;;;9.33;61.02;102402.41;4919570;29;20040;-66
2022/11/27 00:53:38;;;;;;;16.02;9.88;;;;;;;9.31;61.41;102398.91;4919145;29;20048;-66
2022/11/27 00:56:05;;;;;;;17.63;9.43;;;;;;;9.30;61.07;102392.69;4919088;29;20056;-66
2022/11/27 00:58:32;;;;;;;19.80;8.68;;;;;;;9.29;61.29;102388.25;4919411;29;20064;-66
2022/11/27 01:01:06;;;;;;;17.85;7.82;;;;;;;9.29;61.12;102398.09;4902563;29;20040;-67
2022/11/27 01:03:33;;;;;;;15.18;7.80;;;;;;;9.29;61.01;102400.78;4919293;29;20048;-66
2022/11/27 01:06:05;;;;;;;15.32;8.05;;;;;;;9.26;61.17;102398.22;4919350;29;20051;-67
2022/11/27 01:08:33;;;;;;;16.15;8.15;;;;;;;9.24;61.23;102401.84;4901908;29;20048;-66
2022/11/27 01:11:00;;;;;;;19.98;8.05;;;;;;;9.22;61.06;102393.00;4919104;29;20087;-67
2022/11/27 01:13:30;;;;;;;15.18;7.05;;;;;;;9.22;61.25;102390.31;4918885;29;20127;-67
2022/11/27 01:16:06;;;;;;;16.33;6.90;;;;;;;9.21;61.14;102395.75;4918327;29;20059;-67
2022/11/27 01:18:35;;;;;;;14.45;7.35;;;;;;;9.19;61.12;102379.72;4929989;29;20050;-66
2022/11/27 01:21:03;;;;;;;18.08;8.35;;;;;;;9.19;61.06;102381.53;4935800;29;20530;-66
2022/11/27 01:23:30;;;;;;;19.00;7.28;;;;;;;9.19;60.99;102381.53;4923762;29;20103;-67
2022/11/27 01:26:00;;;;;;;14.35;7.43;;;;;;;9.18;61.01;102380.66;4918355;29;20058;-66
2022/11/27 01:28:27;;;;;;;13.93;7.63;;;;;;;9.15;60.98;102371.88;4918810;29;20072;-67
2022/11/27 01:30:54;;;;;;;15.15;7.53;;;;;;;9.11;60.88;102373.81;4918918;29;20048;-66
2022/11/27 01:33:20;;;;;;;17.10;7.50;;;;;;;9.08;60.95;102386.44;4918587;29;20040;-67
2022/11/27 01:35:59;;;;;;;18.08;6.43;;;;;;;9.03;60.86;102383.09;4926247;29;20123;-67
2022/11/27 01:38:27;;;;;;;16.60;6.45;;;;;;;9.02;60.76;102367.94;4937658;29;20047;-66
2022/11/27 01:41:06;;;;;;;12.65;6.32;;;;;;;9.00;60.80;102373.38;4937757;29;20107;-65
2022/11/27 01:43:57;;;;;;;15.10;6.28;;;;;;;8.99;60.88;102374.31;4937235;29;20082;-65
2022/11/27 01:46:35;;;;;;;16.08;6.25;;;;;;;9.00;61.00;102370.69;4916458;29;20054;-65
2022/11/27 01:49:21;;;;;;;15.35;7.15;;;;;;;8.99;60.78;102362.72;4903037;29;20123;-66
2022/11/27 01:51:57;;;;;;;18.20;6.13;;;;;;;8.94;60.96;102360.22;4918192;29;20055;-66
2022/11/27 01:54:28;;;;;;;16.25;6.32;;;;;;;8.91;61.00;102352.25;4916951;29;20123;-66
2022/11/27 01:56:58;;;;;;;14.23;6.35;;;;;;;8.89;60.86;102365.72;4914178;29;20068;-67
2022/11/27 01:59:24;;;;;;;15.50;6.95;;;;;;;8.87;61.04;102364.91;4899434;29;20041;-66
2022/11/27 02:01:51;;;;;;;14.20;6.40;;;;;;;8.85;61.08;102356.06;4899186;29;20088;-66
2022/11/27 02:04:18;;;;;;;11.77;6.28;;;;;;;8.87;61.01;102348.84;4899499;29;20052;-67
2022/11/27 02:06:45;;;;;;;13.10;6.60;;;;;;;8.89;61.15;102338.94;4917382;29;20048;-66
2022/11/27 02:09:12;;;;;;;12.98;6.55;;;;;;;8.91;61.17;102314.75;4918080;29;20048;-66
2022/11/27 02:11:51;;;;;;;15.45;7.10;;;;;;;8.90;61.20;102311.19;4917771;29;20055;-66
2022/11/27 02:14:28;;;;;;;14.18;6.55;;;;;;;8.93;61.23;102306.69;4901786;29;20048;-66
2022/11/27 02:17:20;;;;;;;15.35;6.93;;;;;;;8.93;61.27;102304.00;4899061;29;20052;-66
2022/11/27 02:20:05;;;;;;;11.00;6.68;;;;;;;8.94;61.13;102297.72;4899495;29;20048;-65
2022/11/27 02:22:46;;;;;;;13.47;6.03;;;;;;;8.94;61.22;102289.69;4898976;29;20055;-66
2022/11/27 02:25:27;;;;;;;14.30;6.10;;;;;;;8.93;61.22;102280.78;4905907;29;20307;-67
2022/11/27 02:28:06;;;;;;;13.77;5.88;;;;;;;8.93;61.02;102267.38;4917706;29;20055;-66
2022/11/27 02:30:40;;;;;;;13.32;5.40;;;;;;;8.93;61.25;102267.38;4917943;29;20077;-66
2022/11/27 02:33:11;;;;;;;17.27;6.10;;;;;;;8.95;61.17;102251.22;4917101;29;20051;-66
2022/11/27 02:35:45;;;;;;;16.27;6.10;;;;;;;8.94;61.26;102234.28;4927181;29;20062;-66
2022/11/27 02:38:29;;;;;;;14.27;5.63;;;;;;;8.94;61.29;102236.09;4937096;29;20164;-66
2022/11/27 02:41:18;;;;;;;14.93;5.60;;;;;;;8.93;61.26;102234.34;4919463;29;20047;-66
2022/11/27 02:43:49;;;;;;;16.27;5.78;;;;;;;8.94;61.11;102238.78;4936244;29;20048;-66
2022/11/27 02:46:17;;;;;;;9.60;6.00;;;;;;;8.93;61.15;102247.75;4906412;29;20045;-66
2022/11/27 02:48:50;;;;;;;13.32;5.53;;;;;;;8.93;61.30;102245.06;4908577;29;20068;-67
2022/11/27 02:51:21;;;;;;;10.55;4.95;;;;;;;8.94;61.37;102236.97;4917783;29;20546;-66
2022/11/27 02:53:59;;;;;;;12.25;5.75;;;;;;;8.96;61.21;102256.53;4916995;29;20040;-66
2022/11/27 02:56:29;;;;;;;12.73;5.10;;;;;;;8.98;61.19;102245.75;4930099;29;20067;-65
2022/11/27 02:59:00;;;;;;;9.60;4.82;;;;;;;8.98;60.98;102260.00;4898782;29;20048;-67
2022/11/27 03:01:31;;;;;;;11.00;4.50;;;;;;;9.00;61.01;102255.47;4898921;29;20064;-67
2022/11/27 03:04:01;;;;;;;11.55;5.10;;;;;;;9.01;61.04;102242.94;4898293;29;20095;-65
2022/11/27 03:06:36;;;;;;;11.38;4.88;;;;;;;9.02;61.18;102244.69;4898599;29;20052;-66
2022/11/27 03:09:11;;;;;;;13.65;4.95;;;;;;;9.03;61.15;102236.56;4907267;29;20050;-66
2022/11/27 03:11:37;;;;;;;10.70;4.60;;;;;;;9.03;61.06;102241.94;4917652;29;20047;-66
2022/11/27 03:14:07;;;;;;;13.50;4.90;;;;;;;9.04;61.07;102232.09;4916590;29;20076;-67
2022/11/27 03:17:04;;;;;;;11.05;4.82;;;;;;;9.05;61.18;102236.50;4917348;29;20044;-66
2022/11/27 03:19:41;;;;;;;9.85;4.95;;;;;;;9.07;61.22;102243.53;4923450;29;20048;-67
2022/11/27 03:22:10;;;;;;;13.68;5.00;;;;;;;9.09;61.02;102248.84;4923088;29;20163;-66
2022/11/27 03:24:37;;;;;;;11.45;4.40;;;;;;;9.09;60.99;102240.81;4923616;29;20051;-66
2022/11/27 03:27:04;;;;;;;11.45;4.50;;;;;;;9.10;61.11;102239.88;4923343;29;20032;-66
2022/11/27 03:29:51;;;;;;;9.25;4.18;;;;;;;9.12;61.07;102243.34;4923402;29;20040;-67
2022/11/27 03:32:17;;;;;;;9.93;4.00;;;;;;;9.15;61.11;102243.22;4924466;29;20051;-66
2022/11/27 03:34:45;;;;;;;9.52;4.40;;;;;;;9.15;61.12;102224.44;4925461;29;20049;-66
2022/11/27 03:37:12;;;;;;;9.55;4.00;;;;;;;9.14;61.11;102220.91;4942491;29;20123;-67
2022/11/27 03:39:39;;;;;;;10.68;4.53;;;;;;;9.14;61.11;102220.91;4942384;29;20110;-66
2022/11/27 03:42:11;;;;;;;15.02;5.43;;;;;;;9.16;60.98;102226.19;4942152;29;20047;-66
2022/11/27 03:44:47;;;;;;;10.20;4.07;;;;;;;9.17;60.96;102228.81;4937779;29;20092;-65
2022/11/27 03:47:13;;;;;;;;;;;;;;;9.20;61.09;102227.81;4923973;29;20091;-67
2022/11/27 03:50:01;;;;;;;9.40;3.90;;;;;;;9.24;61.00;102224.06;4923155;29;20293;-67
2022/11/27 03:52:43;;;;;;;9.93;4.18;;;;;;;9.23;61.08;102223.19;4927700;29;20047;-65
2022/11/27 03:55:41;;;;;;;12.10;3.83;;;;;;;9.24;61.08;102221.38;4942399;29;20102;-66
2022/11/27 03:58:28;;;;;;;12.57;3.95;;;;;;;9.25;60.92;102215.06;4928707;29;20115;-66
2022/11/27 04:00:57;;;;;;;11.27;4.30;;;;;;;9.26;60.85;102216.81;4923958;29;20092;-66
2022/11/27 04:03:27;;;;;;;14.57;4.65;;;;;;;9.25;61.05;102204.34;4906111;29;20103;-66
2022/11/27 04:05:55;;;;;;;11.27;4.95;;;;;;;9.27;60.84;102213.19;4923066;29;20090;-66
2022/11/27 04:08:22;;;;;;;8.85;3.90;;;;;;;9.30;61.04;102210.38;4923042;29;20107;-65
2022/11/27 04:10:48;;;;;;;8.20;3.88;;;;;;;9.30;60.98;102210.38;4937433;29;20039;-66
2022/11/27 04:13:15;;;;;;;11.35;4.28;;;;;;;9.32;61.04;102199.59;4940969;29;20180;-67
2022/11/27 04:15:42;;;;;;;12.38;4.40;;;;;;;9.33;60.85;102207.56;4941973;29;20055;-66
2022/11/27 04:18:09;;;;;;;7.20;3.78;;;;;;;9.34;60.75;102209.31;4941965;29;20078;-66
2022/11/27 04:20:35;;;;;;;10.55;5.05;;;;;;;9.34;60.91;102208.44;4936864;29;20072;-66
2022/11/27 04:23:02;;;;;;;10.23;4.13;;;;;;;9.34;60.89;102201.25;4945915;29;20074;-66
2022/11/27 04:25:28;;;;;;;12.63;4.68;;;;;;;9.35;60.86;102197.66;4942310;29;20035;-66
2022/11/27 04:27:55;;;;;;;9.32;3.72;;;;;;;9.35;60.86;102200.31;4942111;29;20451;-67
2022/11/27 04:30:22;;;;;;;13.30;4.20;;;;;;;9.37;60.70;102206.50;4938131;29;20387;-67
2022/11/27 04:32:48;;;;;;;10.98;4.82;;;;;;;9.37;60.81;102198.44;4919230;29;20040;-66
2022/11/27 04:35:15;;;;;;;16.00;5.05;;;;;;;9.37;60.81;102198.44;4919704;29;20047;-67
2022/11/27 04:37:41;;;;;;;9.55;4.28;;;;;;;9.37;60.71;102193.09;4902625;29;20052;-66
2022/11/27 04:40:09;;;;;;;14.68;5.70;;;;;;;9.37;60.71;102198.44;4919235;29;20040;-67
2022/11/27 04:42:35;;;;;;;10.02;4.72;;;;;;;9.37;60.77;102211.84;4918757;29;20040;-67
2022/11/27 04:45:02;;;;;;;12.65;4.80;;;;;;;9.38;60.54;102205.56;4919506;29;20044;-66
2022/11/27 04:47:29;;;;;;;10.20;4.72;;;;;;;9.40;60.60;102209.03;4919497;29;20052;-66
2022/11/27 04:49:55;;;;;;;13.55;4.53;;;;;;;9.41;60.69;102204.53;4919511;29;20436;-66
2022/11/27 04:52:22;;;;;;;16.30;4.80;;;;;;;9.40;60.71;102203.69;4919537;29;20048;-66
2022/11/27 04:54:48;;;;;;;9.63;4.55;;;;;;;9.39;60.42;102201.94;4926223;29;20071;-66
2022/11/27 04:57:15;;;;;;;10.85;4.75;;;;;;;9.38;60.62;102199.31;4938535;29;20040;-66
2022/11/27 04:59:41;;;;;;;11.73;5.50;;;;;;;9.38;60.64;102200.19;4938927;29;20039;-66
2022/11/27 05:02:08;;;;;;;13.80;5.22;;;;;;;9.37;60.61;102186.84;4921455;29;20078;-66
2022/11/27 05:04:34;;;;;;;13.65;5.75;;;;;;;9.38;60.34;102184.09;4937413;29;20058;-66
2022/11/27 05:07:01;;;;;;;11.70;5.43;;;;;;;9.38;60.45;102172.50;4927515;29;20051;-66
2022/11/27 05:09:27;;;;;;;12.35;4.90;;;;;;;9.39;60.30;102160.84;4902951;29;20040;-66
2022/11/27 05:11:54;;;;;;;11.25;4.80;;;;;;;9.37;60.33;102166.28;4919190;29;20066;-66
2022/11/27 05:14:23;;;;;;;10.63;5.65;;;;;;;9.38;60.31;102165.34;4918877;29;20048;-66
2022/11/27 05:16:51;;;;;;;14.48;5.70;;;;;;;9.39;60.37;102167.06;4918873;29;20044;-67
2022/11/27 05:19:20;;;;;;;11.70;5.38;;;;;;;9.38;60.51;102164.47;4926798;29;20044;-67
2022/11/27 05:21:48;;;;;;;10.48;5.40;;;;;;;9.38;60.52;102162.66;4937357;29;20183;-66
2022/11/27 05:24:16;;;;;;;15.63;5.65;;;;;;;9.37;60.29;102152.88;4937795;29;20056;-67
2022/11/27 05:26:44;;;;;;;14.65;5.95;;;;;;;9.37;60.17;102150.19;4938019;29;20108;-67
2022/11/27 05:29:11;;;;;;;10.93;5.72;;;;;;;9.38;60.35;102145.69;4937653;29;20044;-67
2022/11/27 05:31:38;;;;;;;12.68;5.80;;;;;;;9.38;60.41;102146.56;4936355;29;20032;-67
2022/11/27 05:34:06;;;;;;;13.75;6.15;;;;;;;9.37;60.15;102146.63;4937697;29;20073;-67
2022/11/27 05:36:33;;;;;;;14.40;6.50;;;;;;;9.37;60.25;102141.28;4937741;29;20054;-67
2022/11/27 05:39:00;;;;;;;15.25;6.47;;;;;;;9.38;60.19;102135.84;4937620;29;20087;-66
2022/11/27 05:41:27;;;;;;;11.45;6.13;;;;;;;9.37;60.38;102144.81;4937429;29;20050;-66
2022/11/27 05:43:54;;;;;;;12.68;6.13;;;;;;;9.37;60.23;102138.59;4921038;29;20087;-66
2022/11/27 05:46:22;;;;;;;12.45;6.25;;;;;;;9.38;60.41;102130.47;4918637;29;20044;-66
2022/11/27 05:48:49;;;;;;;9.32;5.38;;;;;;;9.39;60.13;102128.66;4918669;29;20044;-66
2022/11/27 05:51:16;;;;;;;11.13;6.60;;;;;;;9.41;60.17;102130.34;4918380;29;20052;-66
2022/11/27 05:53:42;;;;;;;12.80;6.40;;;;;;;9.42;60.41;102128.53;4905202;29;20149;-66
2022/11/27 05:56:12;;;;;;;11.50;5.97;;;;;;;9.43;60.18;102123.09;4899827;29;20049;-65
2022/11/27 05:58:40;;;;;;;11.05;6.40;;;;;;;9.47;60.08;102129.19;4900296;29;20049;-66
2022/11/27 06:01:08;;;;;;;14.13;6.53;;;;;;;9.47;60.38;102131.88;4899414;29;20040;-66
2022/11/27 06:03:34;;;;;;;14.38;6.40;;;;;;;9.48;60.35;102120.19;4899103;29;20534;-66
2022/11/27 06:06:06;;;;;;;13.23;6.75;;;;;;;9.49;60.05;102119.25;4912428;29;20050;-67
2022/11/27 06:08:32;;;;;;;14.65;6.63;;;;;;;9.49;60.24;102117.44;4918362;29;20380;-66
2022/11/27 06:10:59;;;;;;;13.38;6.50;;;;;;;9.51;60.11;102112.88;4918049;29;20040;-66
2022/11/27 06:13:25;;;;;;;11.75;7.00;;;;;;;9.54;60.17;102118.09;4916854;29;20044;-66
2022/11/27 06:15:52;;;;;;;11.00;6.50;;;;;;;9.59;60.26;102111.66;4918027;29;20088;-67
2022/11/27 06:18:19;;;;;;;14.27;7.13;;;;;;;9.59;60.19;102108.97;4917459;29;20040;-66
2022/11/27 06:20:46;;;;;;;14.35;6.43;;;;;;;9.59;60.02;102115.22;4917948;29;20119;-66
2022/11/27 06:23:18;;;;;;;15.00;6.90;;;;;;;9.60;59.86;102106.22;4917470;29;20052;-66
2022/11/27 06:25:44;;;;;;;13.82;7.03;;;;;;;9.60;60.01;102108.03;4917485;29;20468;-66
2022/11/27 06:28:11;;;;;;;14.30;6.88;;;;;;;9.61;59.93;102104.41;4917892;29;20099;-66
2022/11/27 06:30:38;;;;;;;10.90;6.20;;;;;;;9.61;59.94;102099.03;4933427;29;20043;-66
2022/11/27 06:33:04;;;;;;;14.05;6.90;;;;;;;9.60;59.83;102087.44;4936727;29;20122;-67
2022/11/27 06:35:31;;;;;;;11.82;6.82;;;;;;;9.62;59.99;102087.38;4936624;29;20049;-66
2022/11/27 06:37:57;;;;;;;11.80;6.78;;;;;;;9.63;59.79;102081.94;4937227;29;20050;-67
2022/11/27 06:40:24;;;;;;;14.63;6.38;;;;;;;9.64;59.90;102086.34;4936574;29;20075;-67
2022/11/27 06:42:51;;;;;;;15.02;6.47;;;;;;;9.65;60.04;102085.41;4915477;29;20069;-66
2022/11/27 06:45:17;;;;;;;12.38;6.78;;;;;;;9.65;59.69;102082.72;4906955;29;20054;-68
2022/11/27 06:47:44;;;;;;;8.82;6.50;;;;;;;9.66;59.71;102081.81;4901006;29;20072;-66
2022/11/27 06:50:10;;;;;;;12.13;6.80;;;;;;;9.67;59.78;102085.38;4906197;29;20372;-67
2022/11/27 06:52:37;;;;;;;10.57;6.47;;;;;;;9.68;59.63;102092.47;4900386;29;20104;-67
2022/11/27 06:55:06;;;;;;;12.32;7.20;;;;;;;9.69;59.83;102091.53;4915126;29;20048;-67
2022/11/27 06:57:36;;;;;;;13.85;6.57;;;;;;;9.70;59.71;102087.91;4910914;29;20044;-67
2022/11/27 07:00:03;;;;;;;12.82;6.97;;;;;;;9.71;59.90;102090.53;4906932;29;20091;-67
2022/11/27 07:02:29;;;;;;;14.18;7.15;;;;;;;9.73;59.77;102094.00;4910234;29;20048;-67
2022/11/27 07:04:56;;;;;;;14.68;7.35;;;;;;;9.75;59.72;102086.75;4908876;29;20123;-67
2022/11/27 07:07:22;;;;;;;13.52;6.53;;;;;;;9.76;59.67;102093.84;4905516;29;20044;-68
2022/11/27 07:09:49;;;;;;;10.50;6.93;;;;;;;9.77;59.69;102090.22;4903218;29;20408;-66
2022/11/27 07:12:16;;;;;;;15.07;6.75;;;;;;;9.79;59.66;102084.78;4886352;29;20048;-67
2022/11/27 07:14:42;;;;;;;12.55;6.60;;;;;;;9.81;59.43;102088.25;4916434;29;20044;-67
2022/11/27 07:17:09;;;;;;;10.32;6.13;;;;;;;9.82;59.52;102079.28;4910701;29;20047;-65
2022/11/27 07:19:35;;;;;;;11.60;6.47;;;;;;;9.81;59.64;102075.72;4916897;29;20059;-66
2022/11/27 07:22:02;;;;;;;14.63;7.40;;;;;;;9.82;59.44;102076.59;4916320;29;20047;-67
2022/11/27 07:24:28;;;;;;;11.40;7.10;;;;;;;9.84;59.73;102066.66;4927174;29;20063;-66
2022/11/27 07:26:55;;;;;;;12.25;7.25;;;;;;;9.84;59.51;102064.84;4919366;29;20044;-66
2022/11/27 07:29:22;;;;;;;13.73;8.20;;;;;;;9.85;59.59;102069.25;4936093;29;20062;-67
2022/11/27 07:31:50;;;;;;;10.52;6.65;;;;;;;9.86;59.63;102056.72;4915025;29;20076;-67
2022/11/27 07:34:16;;;;;;;11.57;7.40;;;;;;;9.86;59.50;102059.41;4898135;29;20079;-68
2022/11/27 07:36:47;;;;;;;15.27;7.55;;;;;;;9.85;59.79;102058.53;4900948;29;20071;-68
2022/11/27 07:39:16;;;;;;;12.40;7.03;;;;;;;9.85;59.72;102054.97;4897907;29;20075;-66
2022/11/27 07:41:54;;;;;;;11.25;7.30;;;;;;;9.85;59.58;102052.28;4896608;29;20059;-67
2022/11/27 07:44:25;;;;;;;14.38;7.22;;;;;;;9.84;59.66;102048.75;4882021;29;20124;-67
2022/11/27 07:46:51;;;;;;;14.13;7.80;;;;;;;9.84;59.66;102042.50;4897949;29;20076;-66
2022/11/27 07:49:18;;;;;;;13.27;7.82;;;;;;;9.82;59.72;102047.94;4897261;29;20132;-67
2022/11/27 07:51:45;;;;;;;14.20;7.72;;;;;;;9.83;59.66;102046.13;4897674;29;20123;-66
2022/11/27 07:54:12;;;;;;;17.50;7.80;;;;;;;9.82;60.02;102044.41;4910252;29;20040;-67
2022/11/27 07:56:38;;;;;;;10.13;6.90;;;;;;;9.83;60.06;102038.09;4915396;29;20139;-67
2022/11/27 07:59:05;;;;;;;13.40;7.80;;;;;;;9.80;59.85;102035.56;4916867;29;20447;-66
2022/11/27 08:01:31;;;;;;;12.82;6.75;;;;;;;9.80;59.90;102031.06;4916595;29;20371;-66
2022/11/27 08:03:58;;;;;;;17.85;7.72;;;;;;;9.79;60.17;102015.03;4916323;29;20044;-67
2022/11/27 08:06:26;;;;;;;11.93;7.70;;;;;;;9.78;60.33;102016.84;4931074;29;20095;-66
2022/11/27 08:08:55;;;;;;;17.52;8.93;;;;;;;9.80;60.31;102011.41;4939115;29;20398;-65
2022/11/27 08:11:28;;;;;;;11.90;7.68;;;;;;;9.81;60.42;102010.47;4914163;29;20586;-65
2022/11/27 08:13:59;;;;;;;14.57;7.93;;;;;;;9.82;60.36;102012.19;4919089;29;20495;-64
2022/11/27 08:16:26;;;;;;;14.27;8.00;;;;;;;9.82;60.41;102005.03;4918300;29;20045;-65
2022/11/27 08:18:53;;;;;;;14.20;7.72;;;;;;;9.83;60.58;102006.75;4917987;29;20099;-65
2022/11/27 08:21:20;;;;;;;14.27;8.10;;;;;;;9.84;60.59;102004.94;4918483;29;20578;-65
2022/11/27 08:23:47;;;;;;;14.05;8.10;;;;;;;9.84;60.36;102007.63;4917275;29;20123;-64
2022/11/27 08:26:14;;;;;;;13.45;7.90;;;;;;;9.83;60.64;102009.44;4918068;29;20040;-65
2022/11/27 08:28:41;;;;;;;15.43;7.72;;;;;;;9.85;60.52;102001.31;4899721;29;20052;-65
2022/11/27 08:31:10;;;;;;;15.00;7.90;;;;;;;9.86;60.85;102000.38;4917870;29;20048;-65
2022/11/27 08:33:37;;;;;;;11.77;7.55;;;;;;;9.85;60.71;101990.59;4918082;29;20451;-64
2022/11/27 08:36:04;;;;;;;13.32;8.23;;;;;;;9.86;60.71;101995.88;4919549;29;20055;-64
2022/11/27 08:38:34;;;;;;;14.88;8.52;;;;;;;9.88;60.76;101991.31;4919502;29;20052;-64
2022/11/27 08:41:03;;;;;;;12.45;8.00;;;;;;;9.90;60.82;101985.84;4902275;29;20044;-65
2022/11/27 08:43:30;;;;;;;14.15;8.00;;;;;;;9.91;61.02;101984.91;4920195;29;20047;-66
2022/11/27 08:45:57;;;;;;;15.75;9.00;;;;;;;9.91;60.99;101984.91;4918429;29;20083;-65
2022/11/27 08:48:24;;;;;;;16.92;7.95;;;;;;;9.93;61.37;101977.66;4916136;29;20044;-66
2022/11/27 08:50:51;;;;;;;15.20;8.00;;;;;;;9.94;61.04;101989.25;4904142;29;20123;-66
2022/11/27 08:53:18;;;;;;;15.18;8.43;;;;;;;9.94;61.24;101983.88;4919127;29;20048;-65
2022/11/27 08:55:44;;;;;;;10.98;7.50;;;;;;;9.95;61.09;101975.75;4919156;29;20044;-65
2022/11/27 08:58:11;;;;;;;16.17;9.00;;;;;;;9.95;61.08;101970.41;4918227;29;20040;-65
2022/11/27 09:00:38;;;;;;;12.00;8.00;;;;;;;9.97;61.47;101970.31;4937248;29;20040;-66
2022/11/27 09:03:05;;;;;;;15.80;9.23;;;;;;;9.96;61.42;101969.44;4938116;29;20506;-66
2022/11/27 09:05:32;;;;;;;14.68;8.20;;;;;;;9.97;61.44;101971.19;4938065;29;20102;-65
2022/11/27 09:08:01;;;;;;;12.70;7.85;;;;;;;9.97;61.55;101965.81;4937690;29;20048;-66
2022/11/27 09:10:28;;;;;;;16.48;7.88;;;;;;;9.98;61.61;101959.50;4937946;29;20044;-66
2022/11/27 09:12:55;;;;;;;13.88;7.93;;;;;;;9.98;61.65;101959.50;4937783;29;20050;-65
2022/11/27 09:15:22;;;;;;;15.48;8.60;;;;;;;10.00;61.41;101962.97;4933257;29;20055;-65
2022/11/27 09:17:48;;;;;;;16.08;8.05;;;;;;;10.00;61.59;101957.59;4918432;29;20044;-66
2022/11/27 09:20:15;;;;;;;13.60;8.40;;;;;;;10.03;61.47;101956.59;4919233;29;20042;-66
2022/11/27 09:22:41;;;;;;;17.83;8.60;;;;;;;10.05;61.65;101962.75;4917587;29;20036;-66
2022/11/27 09:25:08;;;;;;;14.55;7.80;;;;;;;10.06;61.58;101962.66;4900583;29;20047;-65
2022/11/27 09:27:37;;;;;;;15.75;7.70;;;;;;;10.07;61.67;101956.34;4924386;29;20048;-65
2022/11/27 09:30:06;;;;;;;13.02;7.85;;;;;;;10.07;61.76;101955.47;4920301;29;20043;-66
2022/11/27 09:32:32;;;;;;;14.40;8.23;;;;;;;10.09;61.79;101957.13;4937255;29;20091;-66
2022/11/27 09:34:59;;;;;;;15.40;8.27;;;;;;;10.11;61.87;101960.59;4937193;29;20044;-66
2022/11/27 09:37:25;;;;;;;18.48;9.18;;;;;;;10.13;61.69;101964.09;4937070;29;20063;-65
2022/11/27 09:39:52;;;;;;;14.27;7.75;;;;;;;10.17;61.96;101968.34;4937389;29;20071;-66
2022/11/27 09:42:52;;;;;;;12.95;8.05;;;;;;;10.19;61.66;101970.94;4937356;29;20056;-66
2022/11/27 09:45:21;;;;;;;15.80;8.35;;;;;;;10.22;61.67;101972.66;4937995;29;20426;-66
2022/11/27 09:48:10;;;;;;;10.75;7.82;;;;;;;10.27;61.66;101981.31;4916337;29;20044;-66
2022/11/27 09:50:48;;;;;;;14.35;8.35;;;;;;;10.32;61.57;101968.53;4913413;29;20119;-66
2022/11/27 09:53:42;;;;;;;15.38;7.93;;;;;;;10.34;61.76;101974.69;4916517;29;20064;-66
2022/11/27 09:56:13;;;;;;;12.23;7.88;;;;;;;10.35;61.81;101974.59;4916563;29;20459;-66
2022/11/27 09:58:55;;;;;;;14.52;8.35;;;;;;;10.40;61.79;101972.59;4916035;29;20051;-66
2022/11/27 10:01:26;;;;;;;13.63;8.32;;;;;;;10.44;61.74;101973.28;4899479;29;20041;-65
2022/11/27 10:04:05;;;;;;;15.30;8.75;;;;;;;10.49;61.97;101974.78;4899984;29;20050;-65
2022/11/27 10:06:45;;;;;;;15.32;8.60;;;;;;;10.50;61.90;101967.59;4917854;29;20047;-66
2022/11/27 10:09:18;;;;;;;14.75;8.77;;;;;;;10.53;61.66;101966.56;4918023;29;20123;-66
2022/11/27 10:12:23;;;;;;;16.77;9.52;;;;;;;10.53;61.98;101954.00;4917714;29;20044;-66
2022/11/27 10:15:10;;;;;;;15.52;8.90;;;;;;;10.57;61.86;101952.91;4917818;29;20087;-65
2022/11/27 10:17:47;;;;;;;16.02;9.35;;;;;;;10.57;61.66;101950.22;4917631;29;20134;-65
2022/11/27 10:20:28;;;;;;;17.55;8.38;;;;;;;10.57;61.78;101947.53;4917870;29;20044;-66
2022/11/27 10:23:15;;;;;;;14.82;8.18;;;;;;;10.56;61.85;101934.16;4917574;29;20048;-65
2022/11/27 10:25:49;;;;;;;14.63;8.55;;;;;;;10.59;61.98;101932.19;4917630;29;20048;-66
2022/11/27 10:28:52;;;;;;;14.02;7.95;;;;;;;10.60;61.96;101928.56;4916823;29;20055;-66
2022/11/27 10:31:37;;;;;;;13.93;8.80;;;;;;;10.63;61.83;101912.25;4917601;29;20079;-66
2022/11/27 10:34:25;;;;;;;15.00;8.77;;;;;;;10.63;61.91;101911.41;4900588;29;20040;-66
2022/11/27 10:36:54;;;;;;;16.25;8.35;;;;;;;10.66;62.13;101909.41;4901973;29;20040;-65
2022/11/27 10:39:41;;;;;;;14.55;8.82;;;;;;;10.66;61.96;101897.78;4917668;29;20040;-66
2022/11/27 10:42:35;;;;;;;16.67;9.32;;;;;;;10.68;61.89;101901.28;4917578;29;20048;-66
2022/11/27 10:45:05;;;;;;;15.55;8.98;;;;;;;10.70;61.85;101899.38;4917294;29;20092;-65
2022/11/27 10:47:32;;;;;;;15.70;9.10;;;;;;;10.68;61.97;101894.06;4917124;29;20048;-66
2022/11/27 10:49:59;;;;;;;14.18;8.40;;;;;;;10.70;61.93;101892.19;4917402;29;20052;-66
2022/11/27 10:52:26;;;;;;;15.60;9.23;;;;;;;10.72;62.09;101897.47;4884620;29;20104;-66
2022/11/27 10:55:01;;;;;;;13.27;9.07;;;;;;;10.73;61.90;101888.44;4917152;29;20051;-65
2022/11/27 10:57:57;;;;;;;16.50;10.10;;;;;;;10.72;62.16;101886.72;4917433;29;20056;-65
2022/11/27 11:00:24;;;;;;;14.25;8.82;;;;;;;10.74;62.12;101885.69;4910051;29;20044;-66
2022/11/27 11:03:03;;;;;;;16.52;8.80;;;;;;;10.76;62.05;101878.41;4920586;29;20044;-66
2022/11/27 11:05:31;;;;;;;16.23;9.48;;;;;;;10.78;62.19;101873.81;4900192;29;20052;-66
2022/11/27 11:08:19;;;;;;;12.85;8.70;;;;;;;10.82;61.90;101870.00;4902966;29;20048;-66
2022/11/27 11:10:53;;;;;;;16.27;10.18;;;;;;;10.82;62.00;101864.63;4917171;29;20048;-65
2022/11/27 11:13:22;;;;;;;18.58;10.52;;;;;;;10.82;62.36;101867.31;4899726;29;20074;-65
2022/11/27 11:15:52;;;;;;;15.70;10.27;;;;;;;10.83;62.17;101862.81;4917037;29;20044;-66
2022/11/27 11:18:24;;;;;;;18.20;9.90;;;;;;;10.86;62.20;101854.56;4916908;29;20087;-65
2022/11/27 11:20:55;;;;;;;14.50;9.52;;;;;;;10.90;62.16;101850.75;4917210;29;20040;-65
2022/11/27 11:23:33;;;;;;;15.65;9.77;;;;;;;10.90;61.92;101855.25;4916748;29;20131;-65
2022/11/27 11:26:06;;;;;;;15.52;9.32;;;;;;;10.94;62.18;101844.25;4917312;29;20053;-65
2022/11/27 11:28:42;;;;;;;14.73;9.85;;;;;;;10.96;62.18;101842.34;4916809;29;20040;-65
2022/11/27 11:31:14;;;;;;;14.85;9.15;;;;;;;10.96;62.15;101831.59;4917009;29;20092;-65
2022/11/27 11:33:52;;;;;;;14.63;9.43;;;;;;;10.96;62.04;101830.72;4899578;29;20120;-65
2022/11/27 11:36:19;;;;;;;16.58;9.90;;;;;;;10.96;62.09;101820.84;4900259;29;20048;-66
2022/11/27 11:38:47;;;;;;;14.38;9.02;;;;;;;10.95;62.14;101829.00;4918362;29;20051;-65
2022/11/27 11:41:16;;;;;;;13.48;9.48;;;;;;;10.93;61.93;101823.72;4920794;29;20169;-65